sensor_id;sensor_type;location;lat;lon;timestamp;pressure;altitude;pressure_sealevel;temperature;humidity
23996;BME280;12207;50.076;8.848;2023-12-20T00:02:02;100027.00;;;5.29;100.00
23996;BME280;12207;50.076;8.848;2023-12-20T00:04:28;100020.38;;;5.25;100.00
23996;BME280;12207;50.076;8.848;2023-12-20T00:06:54;100014.53;;;5.30;100.00
23996;BME280;12207;50.076;8.848;2023-12-20T00:09:20;100017.00;;;5.31;100.00
23996;BME280;12207;50.076;8.848;2023-12-20T00:11:46;100011.06;;;5.29;100.00
23996;BME280;12207;50.076;8.848;2023-12-20T00:14:13;100013.53;;;5.31;100.00
23996;BME280;12207;50.076;8.848;2023-12-20T00:16:39;100010.88;;;5.31;100.00
23996;BME280;12207;50.076;8.848;2023-12-20T00:19:08;100006.94;;;5.27;100.00
23996;BME280;12207;50.076;8.848;2023-12-20T00:21:34;100007.56;;;5.29;100.00
23996;BME280;12207;50.076;8.848;2023-12-20T00:24:00;100009.75;;;5.25;100.00
23996;BME280;12207;50.076;8.848;2023-12-20T00:26:26;100004.09;;;5.28;100.00
23996;BME280;12207;50.076;8.848;2023-12-20T00:28:54;99994.28;;;5.29;100.00
23996;BME280;12207;50.076;8.848;2023-12-20T00:31:20;100000.78;;;5.26;100.00
23996;BME280;12207;50.076;8.848;2023-12-20T00:33:46;99999.66;;;5.21;100.00
23996;BME280;12207;50.076;8.848;2023-12-20T00:36:13;99992.34;;;5.23;100.00
23996;BME280;12207;50.076;8.848;2023-12-20T00:38:39;99994.66;;;5.26;100.00
23996;BME280;12207;50.076;8.848;2023-12-20T00:41:05;99983.38;;;5.24;100.00
23996;BME280;12207;50.076;8.848;2023-12-20T00:43:31;99984.03;;;5.26;100.00
23996;BME280;12207;50.076;8.848;2023-12-20T00:45:58;99987.88;;;5.23;100.00
23996;BME280;12207;50.076;8.848;2023-12-20T00:48:25;99986.03;;;5.24;100.00
23996;BME280;12207;50.076;8.848;2023-12-20T00:50:53;99985.22;;;5.23;100.00
23996;BME280;12207;50.076;8.848;2023-12-20T00:53:19;99980.06;;;5.22;100.00
23996;BME280;12207;50.076;8.848;2023-12-20T00:55:45;99975.78;;;5.21;100.00
23996;BME280;12207;50.076;8.848;2023-12-20T00:58:12;99984.19;;;5.24;100.00
23996;BME280;12207;50.076;8.848;2023-12-20T01:00:41;99973.94;;;5.21;100.00
23996;BME280;12207;50.076;8.848;2023-12-20T01:03:08;99974.94;;;5.20;100.00
23996;BME280;12207;50.076;8.848;2023-12-20T01:05:34;99967.81;;;5.21;100.00
23996;BME280;12207;50.076;8.848;2023-12-20T01:08:01;99970.47;;;5.21;100.00
23996;BME280;12207;50.076;8.848;2023-12-20T01:10:29;99972.50;;;5.19;100.00
23996;BME280;12207;50.076;8.848;2023-12-20T01:12:55;99961.66;;;5.20;100.00
23996;BME280;12207;50.076;8.848;2023-12-20T01:15:21;99968.19;;;5.18;100.00
23996;BME280;12207;50.076;8.848;2023-12-20T01:17:47;99965.53;;;5.18;100.00
23996;BME280;12207;50.076;8.848;2023-12-20T01:20:15;99967.19;;;5.19;100.00
23996;BME280;12207;50.076;8.848;2023-12-20T01:22:41;99964.53;;;5.19;100.00
23996;BME280;12207;50.076;8.848;2023-12-20T01:25:08;99968.84;;;5.20;100.00
23996;BME280;12207;50.076;8.848;2023-12-20T01:27:35;99957.09;;;5.14;100.00
23996;BME280;12207;50.076;8.848;2023-12-20T01:30:01;99951.63;;;5.16;100.00
23996;BME280;12207;50.076;8.848;2023-12-20T01:32:27;99949.22;;;5.21;100.00
23996;BME280;12207;50.076;8.848;2023-12-20T01:34:53;99956.75;;;5.17;100.00
23996;BME280;12207;50.076;8.848;2023-12-20T01:37:19;99949.22;;;5.21;100.00
23996;BME280;12207;50.076;8.848;2023-12-20T01:39:45;99958.22;;;5.20;100.00
23996;BME280;12207;50.076;8.848;2023-12-20T01:42:11;99967.19;;;5.19;100.00
23996;BME280;12207;50.076;8.848;2023-12-20T01:44:37;99964.59;;;5.25;100.00
23996;BME280;12207;50.076;8.848;2023-12-20T01:47:03;99976.59;;;5.21;100.00
23996;BME280;12207;50.076;8.848;2023-12-20T01:49:30;99966.78;;;5.22;100.00
23996;BME280;12207;50.076;8.848;2023-12-20T01:51:56;99960.88;;;5.20;100.00
23996;BME280;12207;50.076;8.848;2023-12-20T01:54:23;99969.63;;;5.20;100.00
23996;BME280;12207;50.076;8.848;2023-12-20T01:56:49;99964.53;;;5.19;100.00
23996;BME280;12207;50.076;8.848;2023-12-20T01:59:17;99963.88;;;5.17;100.00
23996;BME280;12207;50.076;8.848;2023-12-20T02:01:43;99966.19;;;5.20;100.00
23996;BME280;12207;50.076;8.848;2023-12-20T02:04:09;99972.09;;;5.22;100.00
23996;BME280;12207;50.076;8.848;2023-12-20T02:06:36;99972.50;;;5.19;100.00
23996;BME280;12207;50.076;8.848;2023-12-20T02:09:04;99979.81;;;5.17;100.00
23996;BME280;12207;50.076;8.848;2023-12-20T02:11:30;99974.75;;;5.22;100.00
23996;BME280;12207;50.076;8.848;2023-12-20T02:13:57;99977.59;;;5.20;100.00
23996;BME280;12207;50.076;8.848;2023-12-20T02:16:23;99975.34;;;5.17;100.00
23996;BME280;12207;50.076;8.848;2023-12-20T02:18:49;99982.56;;;5.23;100.00
23996;BME280;12207;50.076;8.848;2023-12-20T02:21:15;99975.06;;;5.27;100.00
23996;BME280;12207;50.076;8.848;2023-12-20T02:23:41;99977.88;;;5.25;100.00
23996;BME280;12207;50.076;8.848;2023-12-20T02:26:07;99956.16;;;5.22;100.00
23996;BME280;12207;50.076;8.848;2023-12-20T02:28:34;99957.09;;;5.29;100.00
23996;BME280;12207;50.076;8.848;2023-12-20T02:31:00;99971.75;;;5.25;100.00
23996;BME280;12207;50.076;8.848;2023-12-20T02:33:26;99977.00;;;5.18;100.00
23996;BME280;12207;50.076;8.848;2023-12-20T02:35:52;99958.41;;;5.18;100.00
23996;BME280;12207;50.076;8.848;2023-12-20T02:38:19;99960.47;;;5.23;100.00
23996;BME280;12207;50.076;8.848;2023-12-20T02:40:45;99959.13;;;5.27;100.00
23996;BME280;12207;50.076;8.848;2023-12-20T02:43:11;99949.50;;;5.26;100.00
23996;BME280;12207;50.076;8.848;2023-12-20T02:45:37;99947.19;;;5.23;100.00
23996;BME280;12207;50.076;8.848;2023-12-20T02:48:03;99955.81;;;5.25;100.00
23996;BME280;12207;50.076;8.848;2023-12-20T02:50:33;99952.97;;;5.26;100.00
23996;BME280;12207;50.076;8.848;2023-12-20T02:52:59;99961.94;;;5.25;100.00
23996;BME280;12207;50.076;8.848;2023-12-20T02:55:25;99956.56;;;5.19;100.00
23996;BME280;12207;50.076;8.848;2023-12-20T02:57:51;99957.47;;;5.26;100.00
23996;BME280;12207;50.076;8.848;2023-12-20T03:00:17;99955.34;;;5.21;100.00
23996;BME280;12207;50.076;8.848;2023-12-20T03:02:43;99957.81;;;5.23;100.00
23996;BME280;12207;50.076;8.848;2023-12-20T03:05:09;99958.22;;;5.20;100.00
23996;BME280;12207;50.076;8.848;2023-12-20T03:07:37;99959.13;;;5.27;100.00
23996;BME280;12207;50.076;8.848;2023-12-20T03:10:04;99967.72;;;5.29;100.00
23996;BME280;12207;50.076;8.848;2023-12-20T03:12:32;99976.25;;;5.24;100.00
23996;BME280;12207;50.076;8.848;2023-12-20T03:14:58;99976.88;;;5.26;100.00
23996;BME280;12207;50.076;8.848;2023-12-20T03:17:24;99965.16;;;5.21;100.00
23996;BME280;12207;50.076;8.848;2023-12-20T03:19:50;99957.81;;;5.23;100.00
23996;BME280;12207;50.076;8.848;2023-12-20T03:22:16;99954.75;;;5.19;100.00
23996;BME280;12207;50.076;8.848;2023-12-20T03:24:42;99954.53;;;5.21;100.00
23996;BME280;12207;50.076;8.848;2023-12-20T03:27:08;99949.84;;;5.23;100.00
23996;BME280;12207;50.076;8.848;2023-12-20T03:29:34;99963.78;;;5.25;100.00
23996;BME280;12207;50.076;8.848;2023-12-20T03:32:01;99964.78;;;5.24;100.00
23996;BME280;12207;50.076;8.848;2023-12-20T03:34:27;99969.44;;;5.22;100.00
23996;BME280;12207;50.076;8.848;2023-12-20T03:36:55;99974.75;;;5.22;100.00
23996;BME280;12207;50.076;8.848;2023-12-20T03:39:21;99967.63;;;5.22;100.00
23996;BME280;12207;50.076;8.848;2023-12-20T03:41:47;99976.06;;;5.26;100.00
23996;BME280;12207;50.076;8.848;2023-12-20T03:44:13;99976.06;;;5.26;100.00
23996;BME280;12207;50.076;8.848;2023-12-20T03:46:39;99973.75;;;5.23;100.00
23996;BME280;12207;50.076;8.848;2023-12-20T03:49:05;99983.66;;;5.29;100.00
23996;BME280;12207;50.076;8.848;2023-12-20T03:51:31;99986.03;;;5.24;100.00
23996;BME280;12207;50.076;8.848;2023-12-20T03:53:57;99991.91;;;5.19;100.00
23996;BME280;12207;50.076;8.848;2023-12-20T03:56:23;99987.22;;;5.21;100.00
23996;BME280;12207;50.076;8.848;2023-12-20T03:58:50;99987.88;;;5.23;100.00
23996;BME280;12207;50.076;8.848;2023-12-20T04:01:16;99991.72;;;5.21;100.00
23996;BME280;12207;50.076;8.848;2023-12-20T04:03:42;99988.50;;;5.25;100.00
23996;BME280;12207;50.076;8.848;2023-12-20T04:06:08;99991.34;;;5.24;100.00
23996;BME280;12207;50.076;8.848;2023-12-20T04:08:34;99981.38;;;5.26;100.00
23996;BME280;12207;50.076;8.848;2023-12-20T04:11:00;99993.00;;;5.25;100.00
23996;BME280;12207;50.076;8.848;2023-12-20T04:13:26;99995.47;;;5.26;100.00
23996;BME280;12207;50.076;8.848;2023-12-20T04:15:53;99991.81;;;5.27;100.00
23996;BME280;12207;50.076;8.848;2023-12-20T04:18:19;99994.81;;;5.24;100.00
23996;BME280;12207;50.076;8.848;2023-12-20T04:20:45;100007.09;;;5.25;100.00
23996;BME280;12207;50.076;8.848;2023-12-20T04:23:11;100006.38;;;5.31;100.00
23996;BME280;12207;50.076;8.848;2023-12-20T04:25:37;100007.28;;;5.24;100.00
23996;BME280;12207;50.076;8.848;2023-12-20T04:28:03;100004.28;;;5.27;100.00
23996;BME280;12207;50.076;8.848;2023-12-20T04:30:30;100013.06;;;5.27;100.00
23996;BME280;12207;50.076;8.848;2023-12-20T04:32:56;100016.84;;;5.33;100.00
23996;BME280;12207;50.076;8.848;2023-12-20T04:35:23;100013.88;;;5.28;100.00
23996;BME280;12207;50.076;8.848;2023-12-20T04:37:49;100015.06;;;5.25;100.00
23996;BME280;12207;50.076;8.848;2023-12-20T04:40:15;100012.13;;;5.20;100.00
23996;BME280;12207;50.076;8.848;2023-12-20T04:42:41;100014.16;;;5.18;100.00
23996;BME280;12207;50.076;8.848;2023-12-20T04:45:08;100016.19;;;5.16;100.00
23996;BME280;12207;50.076;8.848;2023-12-20T04:47:34;100015.19;;;5.17;100.00
23996;BME280;12207;50.076;8.848;2023-12-20T04:50:00;100031.94;;;5.18;100.00
23996;BME280;12207;50.076;8.848;2023-12-20T04:52:26;100033.59;;;5.19;100.00
23996;BME280;12207;50.076;8.848;2023-12-20T04:54:52;100041.63;;;5.10;100.00
23996;BME280;12207;50.076;8.848;2023-12-20T04:57:19;100050.75;;;5.08;100.00
23996;BME280;12207;50.076;8.848;2023-12-20T04:59:45;100046.28;;;5.08;100.00
23996;BME280;12207;50.076;8.848;2023-12-20T05:02:11;100032.81;;;5.10;100.00
23996;BME280;12207;50.076;8.848;2023-12-20T05:04:37;100041.69;;;5.02;100.00
23996;BME280;12207;50.076;8.848;2023-12-20T05:07:03;100035.47;;;4.95;100.00
23996;BME280;12207;50.076;8.848;2023-12-20T05:09:30;100040.75;;;4.95;100.00
23996;BME280;12207;50.076;8.848;2023-12-20T05:11:57;100034.50;;;4.88;100.00
23996;BME280;12207;50.076;8.848;2023-12-20T05:14:24;100041.81;;;4.86;100.00
23996;BME280;12207;50.076;8.848;2023-12-20T05:16:53;100048.50;;;4.82;100.00
23996;BME280;12207;50.076;8.848;2023-12-20T05:19:19;100060.09;;;4.81;100.00
23996;BME280;12207;50.076;8.848;2023-12-20T05:21:48;100059.09;;;4.82;100.00
23996;BME280;12207;50.076;8.848;2023-12-20T05:24:15;100063.06;;;4.86;100.00
23996;BME280;12207;50.076;8.848;2023-12-20T05:26:41;100070.16;;;4.94;100.00
23996;BME280;12207;50.076;8.848;2023-12-20T05:29:07;100078.19;;;5.00;100.00
23996;BME280;12207;50.076;8.848;2023-12-20T05:31:34;100073.72;;;5.01;100.00
23996;BME280;12207;50.076;8.848;2023-12-20T05:34:00;100081.50;;;5.02;100.00
23996;BME280;12207;50.076;8.848;2023-12-20T05:36:26;100085.81;;;5.03;100.00
23996;BME280;12207;50.076;8.848;2023-12-20T05:38:52;100099.75;;;5.05;100.00
23996;BME280;12207;50.076;8.848;2023-12-20T05:41:19;100090.19;;;4.96;100.00
23996;BME280;12207;50.076;8.848;2023-12-20T05:43:45;100097.53;;;4.94;100.00
23996;BME280;12207;50.076;8.848;2023-12-20T05:46:11;100091.72;;;4.91;100.00
23996;BME280;12207;50.076;8.848;2023-12-20T05:48:38;100084.78;;;4.90;100.00
23996;BME280;12207;50.076;8.848;2023-12-20T05:51:04;100089.59;;;4.86;100.00
23996;BME280;12207;50.076;8.848;2023-12-20T05:53:30;100092.66;;;4.75;100.00
23996;BME280;12207;50.076;8.848;2023-12-20T05:55:56;100088.06;;;4.69;100.00
23996;BME280;12207;50.076;8.848;2023-12-20T05:58:22;100089.06;;;4.68;100.00
23996;BME280;12207;50.076;8.848;2023-12-20T06:00:48;100082.94;;;4.67;100.00
23996;BME280;12207;50.076;8.848;2023-12-20T06:03:15;100083.78;;;4.68;100.00
23996;BME280;12207;50.076;8.848;2023-12-20T06:05:41;100085.28;;;4.62;100.00
23996;BME280;12207;50.076;8.848;2023-12-20T06:08:07;100083.13;;;4.66;100.00
23996;BME280;12207;50.076;8.848;2023-12-20T06:10:33;100089.13;;;4.60;100.00
23996;BME280;12207;50.076;8.848;2023-12-20T06:13:00;100088.63;;;4.56;100.00
23996;BME280;12207;50.076;8.848;2023-12-20T06:15:26;100097.50;;;4.49;100.00
23996;BME280;12207;50.076;8.848;2023-12-20T06:17:52;100096.00;;;4.46;100.00
23996;BME280;12207;50.076;8.848;2023-12-20T06:20:18;100108.13;;;4.40;100.00
23996;BME280;12207;50.076;8.848;2023-12-20T06:22:44;100107.81;;;4.35;100.00
23996;BME280;12207;50.076;8.848;2023-12-20T06:25:11;100108.50;;;4.29;100.00
23996;BME280;12207;50.076;8.848;2023-12-20T06:27:37;100111.00;;;4.31;100.00
23996;BME280;12207;50.076;8.848;2023-12-20T06:30:03;100110.47;;;4.35;100.00
23996;BME280;12207;50.076;8.848;2023-12-20T06:32:29;100106.34;;;4.33;100.00
23996;BME280;12207;50.076;8.848;2023-12-20T06:34:56;100113.47;;;4.32;100.00
23996;BME280;12207;50.076;8.848;2023-12-20T06:37:22;100117.13;;;4.31;100.00
23996;BME280;12207;50.076;8.848;2023-12-20T06:39:48;100110.06;;;4.24;100.00
23996;BME280;12207;50.076;8.848;2023-12-20T06:42:14;100119.84;;;4.23;100.00
23996;BME280;12207;50.076;8.848;2023-12-20T06:44:40;100117.03;;;4.17;100.00
23996;BME280;12207;50.076;8.848;2023-12-20T06:47:06;100125.31;;;4.14;100.00
23996;BME280;12207;50.076;8.848;2023-12-20T06:49:32;100115.53;;;4.22;100.00
23996;BME280;12207;50.076;8.848;2023-12-20T06:51:59;100109.25;;;4.15;100.00
23996;BME280;12207;50.076;8.848;2023-12-20T06:54:25;100117.22;;;4.07;100.00
23996;BME280;12207;50.076;8.848;2023-12-20T06:56:51;100109.59;;;4.04;100.00
23996;BME280;12207;50.076;8.848;2023-12-20T06:59:17;100126.31;;;4.13;100.00
23996;BME280;12207;50.076;8.848;2023-12-20T07:01:48;100123.03;;;4.02;100.00
23996;BME280;12207;50.076;8.848;2023-12-20T07:04:15;100125.50;;;4.04;100.00
23996;BME280;12207;50.076;8.848;2023-12-20T07:06:42;100128.22;;;3.96;100.00
23996;BME280;12207;50.076;8.848;2023-12-20T07:09:08;100122.56;;;3.99;100.00
23996;BME280;12207;50.076;8.848;2023-12-20T07:11:34;100129.47;;;4.08;100.00
23996;BME280;12207;50.076;8.848;2023-12-20T07:14:00;100128.13;;;4.20;100.00
23996;BME280;12207;50.076;8.848;2023-12-20T07:16:27;100129.44;;;4.24;100.00
23996;BME280;12207;50.076;8.848;2023-12-20T07:18:53;100138.84;;;4.27;100.00
23996;BME280;12207;50.076;8.848;2023-12-20T07:21:19;100135.03;;;4.29;100.00
23996;BME280;12207;50.076;8.848;2023-12-20T07:23:45;100152.91;;;4.35;100.00
23996;BME280;12207;50.076;8.848;2023-12-20T07:26:12;100158.53;;;4.40;100.00
23996;BME280;12207;50.076;8.848;2023-12-20T07:28:38;100149.34;;;4.51;100.00
23996;BME280;12207;50.076;8.848;2023-12-20T07:31:04;100150.66;;;4.55;100.00
23996;BME280;12207;50.076;8.848;2023-12-20T07:33:30;100138.53;;;4.61;100.00
23996;BME280;12207;50.076;8.848;2023-12-20T07:35:59;100145.63;;;4.68;100.00
23996;BME280;12207;50.076;8.848;2023-12-20T07:38:25;100153.59;;;4.68;100.00
23996;BME280;12207;50.076;8.848;2023-12-20T07:40:51;100157.06;;;4.69;100.00
23996;BME280;12207;50.076;8.848;2023-12-20T07:43:17;100159.56;;;4.70;100.00
23996;BME280;12207;50.076;8.848;2023-12-20T07:45:44;100154.25;;;4.70;100.00
23996;BME280;12207;50.076;8.848;2023-12-20T07:48:10;100151.47;;;4.64;100.00
23996;BME280;12207;50.076;8.848;2023-12-20T07:50:36;100143.16;;;4.67;100.00
23996;BME280;12207;50.076;8.848;2023-12-20T07:53:02;100139.66;;;4.66;100.00
23996;BME280;12207;50.076;8.848;2023-12-20T07:55:29;100140.50;;;4.67;100.00
23996;BME280;12207;50.076;8.848;2023-12-20T07:57:57;100149.94;;;4.69;100.00
23996;BME280;12207;50.076;8.848;2023-12-20T08:00:23;100155.06;;;4.71;100.00
23996;BME280;12207;50.076;8.848;2023-12-20T08:02:49;100161.06;;;4.65;100.00
23996;BME280;12207;50.076;8.848;2023-12-20T08:05:15;100155.06;;;4.71;100.00
23996;BME280;12207;50.076;8.848;2023-12-20T08:07:41;100161.31;;;4.78;100.00
23996;BME280;12207;50.076;8.848;2023-12-20T08:10:08;100170.78;;;4.72;100.00
23996;BME280;12207;50.076;8.848;2023-12-20T08:12:34;100168.97;;;4.73;100.00
23996;BME280;12207;50.076;8.848;2023-12-20T08:15:01;100173.25;;;4.82;100.00
23996;BME280;12207;50.076;8.848;2023-12-20T08:17:27;100170.56;;;4.90;100.00
23996;BME280;12207;50.076;8.848;2023-12-20T08:19:53;100168.09;;;5.11;100.00
23996;BME280;12207;50.076;8.848;2023-12-20T08:22:19;100180.00;;;5.38;100.00
23996;BME280;12207;50.076;8.848;2023-12-20T08:24:45;100184.69;;;5.51;100.00
23996;BME280;12207;50.076;8.848;2023-12-20T08:27:11;100171.94;;;5.46;99.77
23996;BME280;12207;50.076;8.848;2023-12-20T08:29:37;100167.53;;;5.39;99.35
23996;BME280;12207;50.076;8.848;2023-12-20T08:32:04;100180.72;;;5.32;100.00
23996;BME280;12207;50.076;8.848;2023-12-20T08:34:30;100169.97;;;5.26;100.00
23996;BME280;12207;50.076;8.848;2023-12-20T08:36:56;100173.25;;;5.28;100.00
23996;BME280;12207;50.076;8.848;2023-12-20T08:39:22;100167.59;;;5.31;100.00
23996;BME280;12207;50.076;8.848;2023-12-20T08:41:48;100167.94;;;5.28;100.00
23996;BME280;12207;50.076;8.848;2023-12-20T08:44:17;100175.28;;;5.26;100.00
23996;BME280;12207;50.076;8.848;2023-12-20T08:46:43;100183.59;;;5.23;100.00
23996;BME280;12207;50.076;8.848;2023-12-20T08:49:09;100190.63;;;5.16;100.00
23996;BME280;12207;50.076;8.848;2023-12-20T08:51:36;100185.06;;;5.25;100.00
23996;BME280;12207;50.076;8.848;2023-12-20T08:54:02;100181.66;;;5.77;98.95
23996;BME280;12207;50.076;8.848;2023-12-20T08:56:29;100184.00;;;5.95;97.51
23996;BME280;12207;50.076;8.848;2023-12-20T08:58:55;100181.97;;;5.97;97.62
23996;BME280;12207;50.076;8.848;2023-12-20T09:01:21;100177.91;;;5.86;97.88
23996;BME280;12207;50.076;8.848;2023-12-20T09:03:47;100170.66;;;5.80;97.02
23996;BME280;12207;50.076;8.848;2023-12-20T09:06:13;100170.38;;;5.75;97.12
23996;BME280;12207;50.076;8.848;2023-12-20T09:08:39;100184.75;;;5.66;98.52
23996;BME280;12207;50.076;8.848;2023-12-20T09:11:06;100173.13;;;5.67;97.84
23996;BME280;12207;50.076;8.848;2023-12-20T09:13:32;100181.47;;;5.78;98.56
23996;BME280;12207;50.076;8.848;2023-12-20T09:15:59;100166.81;;;5.82;96.45
23996;BME280;12207;50.076;8.848;2023-12-20T09:18:25;100165.81;;;5.83;96.14
23996;BME280;12207;50.076;8.848;2023-12-20T09:20:51;100162.31;;;5.83;96.82
23996;BME280;12207;50.076;8.848;2023-12-20T09:23:17;100176.38;;;5.92;97.10
23996;BME280;12207;50.076;8.848;2023-12-20T09:25:44;100171.06;;;5.92;96.67
23996;BME280;12207;50.076;8.848;2023-12-20T09:28:10;100175.28;;;6.01;96.01
23996;BME280;12207;50.076;8.848;2023-12-20T09:30:36;100168.41;;;6.06;96.33
23996;BME280;12207;50.076;8.848;2023-12-20T09:33:05;100166.59;;;6.07;96.92
23996;BME280;12207;50.076;8.848;2023-12-20T09:35:33;100174.94;;;6.04;95.47
23996;BME280;12207;50.076;8.848;2023-12-20T09:37:59;100173.56;;;6.08;95.49
23996;BME280;12207;50.076;8.848;2023-12-20T09:40:26;100172.19;;;6.12;95.00
23996;BME280;12207;50.076;8.848;2023-12-20T09:43:20;100186.38;;;6.19;95.21
23996;BME280;12207;50.076;8.848;2023-12-20T09:45:47;100177.94;;;6.15;94.31
23996;BME280;12207;50.076;8.848;2023-12-20T09:48:15;100181.72;;;6.21;93.61
23996;BME280;12207;50.076;8.848;2023-12-20T09:50:44;100182.53;;;6.22;94.56
23996;BME280;12207;50.076;8.848;2023-12-20T09:53:11;100194.56;;;6.18;94.26
23996;BME280;12207;50.076;8.848;2023-12-20T09:55:41;100186.75;;;6.16;95.33
23996;BME280;12207;50.076;8.848;2023-12-20T09:58:08;100190.69;;;6.20;93.82
23996;BME280;12207;50.076;8.848;2023-12-20T10:00:35;100189.22;;;6.18;94.16
23996;BME280;12207;50.076;8.848;2023-12-20T10:03:01;100175.94;;;6.18;93.79
23996;BME280;12207;50.076;8.848;2023-12-20T10:05:28;100181.72;;;6.21;95.16
23996;BME280;12207;50.076;8.848;2023-12-20T10:07:54;100181.34;;;6.24;94.20
23996;BME280;12207;50.076;8.848;2023-12-20T10:10:21;100179.88;;;6.22;94.57
23996;BME280;12207;50.076;8.848;2023-12-20T10:13:05;100187.22;;;6.34;95.23
23996;BME280;12207;50.076;8.848;2023-12-20T10:15:33;100180.50;;;6.38;93.77
23996;BME280;12207;50.076;8.848;2023-12-20T10:18:00;100178.13;;;6.43;94.67
23996;BME280;12207;50.076;8.848;2023-12-20T10:20:26;100175.09;;;6.46;94.20
23996;BME280;12207;50.076;8.848;2023-12-20T10:22:58;100178.41;;;6.48;93.88
23996;BME280;12207;50.076;8.848;2023-12-20T10:25:25;100182.53;;;6.51;94.39
23996;BME280;12207;50.076;8.848;2023-12-20T10:28:09;100173.72;;;6.50;94.98
23996;BME280;12207;50.076;8.848;2023-12-20T10:30:36;100174.50;;;6.66;93.91
23996;BME280;12207;50.076;8.848;2023-12-20T10:33:02;100165.16;;;6.70;92.75
23996;BME280;12207;50.076;8.848;2023-12-20T10:35:28;100162.94;;;6.73;93.35
23996;BME280;12207;50.076;8.848;2023-12-20T10:37:56;100161.56;;;6.77;93.23
23996;BME280;12207;50.076;8.848;2023-12-20T10:40:23;100161.00;;;6.82;93.17
23996;BME280;12207;50.076;8.848;2023-12-20T10:42:51;100159.72;;;6.78;92.25
23996;BME280;12207;50.076;8.848;2023-12-20T10:45:18;100158.72;;;6.79;92.58
23996;BME280;12207;50.076;8.848;2023-12-20T10:47:46;100155.03;;;6.80;91.98
23996;BME280;12207;50.076;8.848;2023-12-20T10:50:13;100154.66;;;6.83;92.38
23996;BME280;12207;50.076;8.848;2023-12-20T10:52:40;100153.25;;;6.87;91.89
23996;BME280;12207;50.076;8.848;2023-12-20T10:55:08;100143.59;;;6.86;90.83
23996;BME280;12207;50.076;8.848;2023-12-20T10:57:36;100135.38;;;7.02;90.53
23996;BME280;12207;50.076;8.848;2023-12-20T11:00:03;100130.66;;;7.47;91.26
23996;BME280;12207;50.076;8.848;2023-12-20T11:02:32;100119.06;;;7.89;88.67
23996;BME280;12207;50.076;8.848;2023-12-20T11:05:10;100127.81;;;8.11;85.95
23996;BME280;12207;50.076;8.848;2023-12-20T11:07:47;100117.41;;;8.23;84.58
23996;BME280;12207;50.076;8.848;2023-12-20T11:10:41;100129.53;;;8.25;84.64
23996;BME280;12207;50.076;8.848;2023-12-20T11:13:16;100123.03;;;8.34;85.19
23996;BME280;12207;50.076;8.848;2023-12-20T11:15:43;100115.88;;;8.41;82.49
23996;BME280;12207;50.076;8.848;2023-12-20T11:18:10;100128.06;;;8.64;84.07
23996;BME280;12207;50.076;8.848;2023-12-20T11:20:37;100120.22;;;8.55;81.63
23996;BME280;12207;50.076;8.848;2023-12-20T11:23:04;100114.69;;;8.57;81.08
23996;BME280;12207;50.076;8.848;2023-12-20T11:28:13;100116.38;;;8.65;80.84
23996;BME280;12207;50.076;8.848;2023-12-20T11:30:54;100116.94;;;8.53;82.46
23996;BME280;12207;50.076;8.848;2023-12-20T11:33:26;100118.00;;;8.59;82.49
23996;BME280;12207;50.076;8.848;2023-12-20T11:35:55;100118.88;;;8.86;80.52
23996;BME280;12207;50.076;8.848;2023-12-20T11:38:21;100123.59;;;8.77;80.60
23996;BME280;12207;50.076;8.848;2023-12-20T11:40:49;100126.06;;;8.79;81.37
23996;BME280;12207;50.076;8.848;2023-12-20T11:43:37;100118.66;;;8.68;80.35
23996;BME280;12207;50.076;8.848;2023-12-20T11:46:08;100114.94;;;8.69;81.05
23996;BME280;12207;50.076;8.848;2023-12-20T11:48:39;100114.75;;;8.77;81.16
23996;BME280;12207;50.076;8.848;2023-12-20T11:51:13;100115.50;;;8.58;80.12
23996;BME280;12207;50.076;8.848;2023-12-20T11:53:40;100103.97;;;8.44;81.23
23996;BME280;12207;50.076;8.848;2023-12-20T11:56:08;100108.34;;;8.17;81.86
23996;BME280;12207;50.076;8.848;2023-12-20T11:58:35;100100.25;;;8.04;82.49
23996;BME280;12207;50.076;8.848;2023-12-20T12:01:02;100101.84;;;7.92;83.19
23996;BME280;12207;50.076;8.848;2023-12-20T12:03:28;100096.44;;;7.78;83.18
23996;BME280;12207;50.076;8.848;2023-12-20T12:05:54;100097.09;;;7.59;83.05
23996;BME280;12207;50.076;8.848;2023-12-20T12:08:20;100103.19;;;7.46;84.56
23996;BME280;12207;50.076;8.848;2023-12-20T12:10:47;100100.72;;;7.45;85.67
23996;BME280;12207;50.076;8.848;2023-12-20T12:13:13;100094.38;;;7.46;84.15
23996;BME280;12207;50.076;8.848;2023-12-20T12:15:40;100096.19;;;7.45;84.75
23996;BME280;12207;50.076;8.848;2023-12-20T12:18:08;100101.28;;;7.40;84.17
23996;BME280;12207;50.076;8.848;2023-12-20T12:20:34;100096.53;;;7.36;84.72
23996;BME280;12207;50.076;8.848;2023-12-20T12:23:04;100086.50;;;7.38;83.49
23996;BME280;12207;50.076;8.848;2023-12-20T12:25:34;100088.34;;;7.37;83.40
23996;BME280;12207;50.076;8.848;2023-12-20T12:28:01;100087.38;;;7.45;82.87
23996;BME280;12207;50.076;8.848;2023-12-20T12:30:27;100085.69;;;7.37;84.12
23996;BME280;12207;50.076;8.848;2023-12-20T12:32:55;100091.25;;;7.42;83.42
23996;BME280;12207;50.076;8.848;2023-12-20T12:35:22;100088.78;;;7.41;83.65
23996;BME280;12207;50.076;8.848;2023-12-20T12:37:48;100080.41;;;7.44;84.74
23996;BME280;12207;50.076;8.848;2023-12-20T12:40:16;100076.16;;;7.49;83.87
23996;BME280;12207;50.076;8.848;2023-12-20T12:42:44;100071.38;;;7.45;83.04
23996;BME280;12207;50.076;8.848;2023-12-20T12:45:11;100071.19;;;7.46;84.96
23996;BME280;12207;50.076;8.848;2023-12-20T12:47:40;100067.31;;;7.49;82.71
23996;BME280;12207;50.076;8.848;2023-12-20T12:50:07;100063.78;;;7.42;82.63
23996;BME280;12207;50.076;8.848;2023-12-20T12:52:34;100060.84;;;7.37;82.68
23996;BME280;12207;50.076;8.848;2023-12-20T12:55:01;100060.00;;;7.30;83.25
23996;BME280;12207;50.076;8.848;2023-12-20T12:57:33;100060.84;;;7.30;84.19